createdAt,value
2023-08-30T00:02:19.977Z,19.00
2023-08-30T00:05:24.880Z,10.00
2023-08-30T00:08:28.402Z,22.33
2023-08-30T00:11:33.485Z,15.67
2023-08-30T00:14:37.196Z,16.00
2023-08-30T00:17:40.887Z,12.00
2023-08-30T00:20:46.250Z,15.00
2023-08-30T00:23:49.684Z,16.00
2023-08-30T00:26:53.199Z,11.33
2023-08-30T00:29:56.888Z,15.00
2023-08-30T00:33:00.316Z,16.00
2023-08-30T00:36:05.489Z,7.00
2023-08-30T00:39:09.703Z,18.33
2023-08-30T00:42:13.380Z,16.67
2023-08-30T00:45:16.946Z,15.33
2023-08-30T00:48:22.855Z,18.67
2023-08-30T00:51:29.830Z,18.00
2023-08-30T00:54:33.741Z,15.67
2023-08-30T00:57:37.365Z,16.00
2023-08-30T01:00:41.962Z,15.33
2023-08-30T01:03:47.574Z,16.00
2023-08-30T01:09:56.294Z,16.33
2023-08-30T01:13:08.479Z,15.00
2023-08-30T01:16:12.185Z,15.00
2023-08-30T01:19:36.540Z,15.00
2023-08-30T01:22:46.421Z,11.67
2023-08-30T01:25:59.831Z,16.67
2023-08-30T01:29:07.221Z,16.00
2023-08-30T01:32:12.216Z,16.67
2023-08-30T01:35:18.899Z,16.67
2023-08-30T01:38:22.579Z,13.67
2023-08-30T01:41:27.159Z,19.00
2023-08-30T01:44:33.253Z,21.00
2023-08-30T01:47:38.354Z,18.00
2023-08-30T01:50:43.524Z,15.00
2023-08-30T01:53:48.583Z,12.67
2023-08-30T01:56:52.263Z,16.00
2023-08-30T01:59:57.236Z,13.33
2023-08-30T02:03:01.089Z,14.33
2023-08-30T02:06:10.098Z,10.00
2023-08-30T02:09:20.056Z,12.67
2023-08-30T02:12:27.280Z,15.67
2023-08-30T02:15:34.281Z,14.33
2023-08-30T02:18:39.159Z,12.00
2023-08-30T02:21:43.371Z,10.00
2023-08-30T02:24:47.765Z,14.33
2023-08-30T02:27:51.242Z,12.67
2023-08-30T02:30:56.637Z,13.67
2023-08-30T02:34:00.075Z,12.33
2023-08-30T02:37:03.482Z,13.67
2023-08-30T02:40:07.989Z,10.67
2023-08-30T02:43:11.637Z,13.67
2023-08-30T02:46:16.501Z,12.00
2023-08-30T02:49:19.945Z,12.00
2023-08-30T02:52:23.312Z,12.33
2023-08-30T02:55:26.714Z,15.00
2023-08-30T02:58:32.158Z,14.00
2023-08-30T03:01:39.343Z,11.33
2023-08-30T03:04:42.882Z,13.67
2023-08-30T03:07:47.629Z,10.00
2023-08-30T03:10:51.182Z,12.00
2023-08-30T03:13:56.628Z,9.00
2023-08-30T03:17:01.668Z,12.67
2023-08-30T03:20:06.559Z,12.00
2023-08-30T03:23:10.588Z,12.00
2023-08-30T03:26:15.222Z,8.67
2023-08-30T03:29:18.759Z,12.67
2023-08-30T03:32:23.853Z,11.33
2023-08-30T03:35:27.254Z,10.00
2023-08-30T03:38:30.703Z,12.00
2023-08-30T03:41:34.309Z,7.67
2023-08-30T03:44:40.756Z,11.33
2023-08-30T03:49:51.873Z,17.00
2023-08-30T03:52:55.500Z,12.67
2023-08-30T03:55:59.334Z,8.33
2023-08-30T03:59:02.840Z,7.67
2023-08-30T04:02:06.500Z,4.00
2023-08-30T04:05:11.849Z,10.67
2023-08-30T04:08:15.469Z,12.00
2023-08-30T04:11:19.017Z,13.00
2023-08-30T04:14:24.518Z,12.00
2023-08-30T04:17:28.477Z,3.67
2023-08-30T04:20:34.364Z,10.00
2023-08-30T04:23:37.985Z,9.33
2023-08-30T04:26:42.468Z,10.00
2023-08-30T04:29:46.454Z,9.00
2023-08-30T04:32:50.089Z,9.67
2023-08-30T04:35:55.508Z,9.00
2023-08-30T04:39:02.954Z,9.00
2023-08-30T04:42:08.986Z,7.00
2023-08-30T04:45:12.645Z,9.33
2023-08-30T04:48:16.160Z,9.00
2023-08-30T04:51:22.005Z,5.33
2023-08-30T04:54:25.524Z,4.00
2023-08-30T04:57:29.096Z,4.67
2023-08-30T05:00:33.085Z,6.67
2023-08-30T05:03:36.705Z,1.67
2023-08-30T05:06:41.971Z,3.33
2023-08-30T05:09:45.410Z,3.00
2023-08-30T05:12:53.135Z,1.00
2023-08-30T05:15:56.832Z,3.00
2023-08-30T05:19:00.415Z,1.67
2023-08-30T05:22:05.950Z,1.00
2023-08-30T05:25:10.060Z,0.00
2023-08-30T05:28:13.579Z,0.00
2023-08-30T05:31:17.785Z,0.00
2023-08-30T05:34:50.402Z,0.00
2023-08-30T05:38:19.654Z,0.67
2023-08-30T05:41:29.845Z,0.00
2023-08-30T05:44:33.432Z,0.00
2023-08-30T05:47:37.063Z,2.33
2023-08-30T05:50:41.854Z,1.67
2023-08-30T05:53:46.731Z,1.00
2023-08-30T05:56:50.202Z,1.00
2023-08-30T05:59:53.663Z,0.67
2023-08-30T06:02:57.405Z,3.00
2023-08-30T06:06:01.113Z,3.00
2023-08-30T06:09:06.218Z,3.33
2023-08-30T06:12:11.029Z,3.00
2023-08-30T06:15:14.457Z,2.33
2023-08-30T06:18:18.040Z,2.33
2023-08-30T06:21:21.437Z,2.33
2023-08-30T06:24:26.243Z,3.67
2023-08-30T06:27:29.770Z,1.00
2023-08-30T06:30:33.356Z,1.67
2023-08-30T06:33:38.051Z,4.00
2023-08-30T06:36:41.957Z,1.00
2023-08-30T06:39:46.753Z,3.00
2023-08-30T06:42:50.135Z,3.00
2023-08-30T06:45:54.372Z,3.00
2023-08-30T06:48:57.874Z,4.00
2023-08-30T06:52:03.033Z,1.67
2023-08-30T06:55:08.566Z,4.00
2023-08-30T06:58:12.253Z,4.67
2023-08-30T07:01:15.887Z,3.00
2023-08-30T07:04:19.471Z,3.00
2023-08-30T07:07:22.954Z,1.00
2023-08-30T07:10:27.828Z,0.00
2023-08-30T07:13:31.386Z,3.00
2023-08-30T07:16:34.972Z,1.00
2023-08-30T07:19:38.488Z,3.00
2023-08-30T07:22:42.379Z,2.33
2023-08-30T07:25:47.222Z,1.00
2023-08-30T07:39:37.555Z,1.00
2023-08-30T07:42:42.469Z,3.00
2023-08-30T07:45:46.739Z,4.00
2023-08-30T07:48:50.316Z,1.00
2023-08-30T07:51:53.870Z,1.00
2023-08-30T07:54:57.608Z,3.00
2023-08-30T07:58:02.815Z,1.00
2023-08-30T08:01:06.391Z,0.33
2023-08-30T08:04:09.843Z,1.00
2023-08-30T08:07:13.677Z,0.67
2023-08-30T08:10:17.389Z,2.33
2023-08-30T08:13:23.721Z,1.00
2023-08-30T08:16:27.250Z,3.67
2023-08-30T08:19:30.735Z,6.00
2023-08-30T08:22:34.169Z,6.33
2023-08-30T08:25:37.645Z,6.00
2023-08-30T08:28:42.652Z,5.33
2023-08-30T08:31:46.053Z,3.33
2023-08-30T08:34:49.800Z,2.33
2023-08-30T08:37:53.386Z,3.33
2023-08-30T08:41:04.700Z,3.00
2023-08-30T08:44:10.550Z,1.00
2023-08-30T08:47:14.395Z,3.00
2023-08-30T08:50:18.752Z,3.00
2023-08-30T08:53:23.248Z,3.00
2023-08-30T08:56:26.951Z,4.00
2023-08-30T08:59:31.936Z,3.67
2023-08-30T09:02:35.719Z,3.00
2023-08-30T09:05:41.111Z,3.00
2023-08-30T09:08:46.126Z,3.33
2023-08-30T09:11:51.837Z,4.00
2023-08-30T09:14:58.488Z,1.67
2023-08-30T09:18:02.030Z,3.00
2023-08-30T09:21:08.614Z,3.00
2023-08-30T09:24:12.258Z,3.00
2023-08-30T09:27:15.824Z,1.67
2023-08-30T09:30:25.317Z,3.33
2023-08-30T09:33:36.409Z,3.00
2023-08-30T09:36:41.828Z,1.00
2023-08-30T09:39:51.401Z,1.00
2023-08-30T09:43:12.755Z,3.00
2023-08-30T09:46:19.080Z,0.00
2023-08-30T09:49:24.227Z,0.00
2023-08-30T09:52:31.060Z,3.00
2023-08-30T09:55:35.799Z,0.67
2023-08-30T09:58:42.257Z,0.00
2023-08-30T10:01:50.402Z,3.33
2023-08-30T10:04:55.464Z,3.67
2023-08-30T10:08:00.310Z,3.00
2023-08-30T10:11:04.926Z,4.00
2023-08-30T10:14:09.460Z,4.00
2023-08-30T10:17:16.670Z,0.33
2023-08-30T10:20:21.908Z,1.67
2023-08-30T10:23:27.084Z,1.00
2023-08-30T10:26:33.554Z,1.00
2023-08-30T10:29:38.581Z,3.00
2023-08-30T10:32:44.276Z,1.00
2023-08-30T10:35:52.672Z,3.00
2023-08-30T10:38:56.718Z,1.00
2023-08-30T10:42:00.842Z,0.00
2023-08-30T10:48:14.755Z,1.00
2023-08-30T10:51:37.817Z,1.00
2023-08-30T10:54:41.535Z,0.00
2023-08-30T10:57:46.397Z,0.00
2023-08-30T11:00:50.102Z,2.33
2023-08-30T11:04:09.453Z,0.33
2023-08-30T11:07:18.956Z,0.00
2023-08-30T11:10:23.190Z,0.00
2023-08-30T11:13:26.674Z,1.00
2023-08-30T11:16:30.546Z,1.00
2023-08-30T11:19:35.872Z,0.00
2023-08-30T11:22:40.573Z,1.00
2023-08-30T11:25:44.151Z,0.00
2023-08-30T11:28:49.481Z,0.00
2023-08-30T11:31:52.972Z,0.00
2023-08-30T11:35:02.211Z,1.00
2023-08-30T11:38:06.147Z,0.67
2023-08-30T11:41:10.213Z,0.00
2023-08-30T11:44:14.061Z,0.67
2023-08-30T11:47:20.993Z,0.33
2023-08-30T11:50:28.149Z,0.00
2023-08-30T11:53:32.233Z,0.00
2023-08-30T11:56:36.341Z,0.00
2023-08-30T11:59:41.539Z,0.00
2023-08-30T12:02:45.587Z,1.00
2023-08-30T12:05:51.940Z,0.00
2023-08-30T12:09:00.831Z,1.00
2023-08-30T12:12:08.799Z,1.00
2023-08-30T12:15:13.522Z,0.67
2023-08-30T12:18:17.363Z,1.00
2023-08-30T12:21:22.282Z,0.33
2023-08-30T12:24:25.811Z,1.00
2023-08-30T12:27:29.342Z,0.00
2023-08-30T12:30:32.741Z,0.00
2023-08-30T12:33:36.813Z,0.67
2023-08-30T12:36:42.060Z,0.00
2023-08-30T12:39:45.533Z,1.00
2023-08-30T12:42:48.988Z,1.00
2023-08-30T12:45:52.899Z,1.00
2023-08-30T12:48:58.189Z,5.33
2023-08-30T12:52:04.440Z,3.67
2023-08-30T12:55:08.238Z,3.00
2023-08-30T12:58:12.988Z,4.00
2023-08-30T13:01:16.489Z,3.00
2023-08-30T13:04:20.206Z,1.67
2023-08-30T13:07:25.740Z,1.00
2023-08-30T13:10:29.556Z,3.00
2023-08-30T13:13:33.086Z,1.00
2023-08-30T13:16:37.122Z,1.00
2023-08-30T13:19:40.685Z,1.00
2023-08-30T13:22:45.531Z,3.00
2023-08-30T13:25:50.262Z,0.00
2023-08-30T13:28:54.723Z,7.00
2023-08-30T13:31:58.231Z,3.00
2023-08-30T13:35:01.904Z,1.67
2023-08-30T13:38:07.232Z,0.33
2023-08-30T13:41:10.558Z,0.33
2023-08-30T13:44:14.146Z,2.33
2023-08-30T13:47:18.105Z,3.00
2023-08-30T13:50:21.836Z,0.00
2023-08-30T13:53:30.075Z,1.00
2023-08-30T13:56:34.139Z,1.00
2023-08-30T13:59:37.813Z,0.00
2023-08-30T14:02:41.378Z,0.00
2023-08-30T14:05:45.763Z,3.33
2023-08-30T14:08:50.818Z,1.67
2023-08-30T14:11:54.557Z,4.00
2023-08-30T14:14:58.010Z,0.00
2023-08-30T14:18:01.892Z,1.67
2023-08-30T14:21:05.611Z,0.00
2023-08-30T14:24:11.249Z,3.00
2023-08-30T14:27:15.619Z,1.00
2023-08-30T14:30:19.338Z,0.33
2023-08-30T14:33:23.084Z,3.33
2023-08-30T14:36:26.891Z,1.00
2023-08-30T14:39:31.838Z,1.00
2023-08-30T14:42:35.800Z,1.00
2023-08-30T14:45:39.299Z,0.33
2023-08-30T14:48:43.341Z,0.67
2023-08-30T14:51:47.702Z,1.00
2023-08-30T14:54:53.113Z,0.00
2023-08-30T14:57:56.657Z,0.33
2023-08-30T15:01:00.731Z,0.00
2023-08-30T15:04:05.336Z,3.00
2023-08-30T15:07:08.854Z,0.67
2023-08-30T15:10:13.752Z,0.00
2023-08-30T15:13:17.445Z,1.00
2023-08-30T15:16:20.932Z,1.00
2023-08-30T15:19:24.398Z,0.67
2023-08-30T15:22:27.950Z,1.00
2023-08-30T15:25:33.590Z,1.00
2023-08-30T15:28:37.078Z,1.00
2023-08-30T15:31:40.675Z,0.33
2023-08-30T15:34:44.589Z,0.33
2023-08-30T15:37:48.048Z,0.33
2023-08-30T15:40:56.011Z,2.33
2023-08-30T15:43:59.933Z,1.00
2023-08-30T15:47:03.608Z,0.00
2023-08-30T15:50:08.277Z,0.00
2023-08-30T15:53:11.716Z,1.00
2023-08-30T15:56:16.756Z,0.00
2023-08-30T15:59:20.226Z,1.00
2023-08-30T16:02:25.480Z,1.00
2023-08-30T16:05:28.939Z,0.00
2023-08-30T16:08:32.612Z,1.00
2023-08-30T16:11:37.461Z,1.00
2023-08-30T16:14:40.980Z,0.00
2023-08-30T16:17:45.635Z,1.00
2023-08-30T16:20:52.357Z,1.00
2023-08-30T16:23:55.890Z,0.00
2023-08-30T16:27:01.616Z,1.00
2023-08-30T16:30:06.141Z,1.00
2023-08-30T16:33:09.854Z,0.00
2023-08-30T16:36:14.274Z,0.67
2023-08-30T16:39:18.110Z,1.00
2023-08-30T16:42:22.972Z,0.67
2023-08-30T16:45:26.532Z,0.00
2023-08-30T16:48:30.675Z,0.00
2023-08-30T16:51:34.493Z,1.00
2023-08-30T16:54:37.971Z,0.00
2023-08-30T16:57:43.063Z,1.00
2023-08-30T17:00:46.780Z,3.00
2023-08-30T17:03:50.391Z,3.00
2023-08-30T17:07:00.443Z,3.00
2023-08-30T17:10:05.524Z,0.00
2023-08-30T17:18:18.787Z,1.00
2023-08-30T17:21:23.368Z,0.00
2023-08-30T17:24:26.830Z,0.00
2023-08-30T17:27:31.452Z,0.00
2023-08-30T17:30:35.157Z,0.00
2023-08-30T17:33:40.365Z,0.00
2023-08-30T17:36:48.578Z,0.00
2023-08-30T17:39:52.144Z,0.67
2023-08-30T17:42:55.616Z,0.00
2023-08-30T17:46:02.212Z,0.00
2023-08-30T17:49:07.230Z,0.00
2023-08-30T17:52:10.877Z,0.33
2023-08-30T17:55:16.362Z,1.00
2023-08-30T17:58:19.922Z,0.67
2023-08-30T18:01:23.372Z,0.00
2023-08-30T18:04:28.954Z,1.00
2023-08-30T18:07:32.614Z,0.00
2023-08-30T18:10:36.155Z,0.00
2023-08-30T18:13:41.780Z,0.00
2023-08-30T18:16:45.512Z,0.00
2023-08-30T18:19:50.596Z,1.00
2023-08-30T18:22:54.158Z,0.00
2023-08-30T18:25:57.930Z,1.00
2023-08-30T18:29:04.020Z,0.00
2023-08-30T18:32:08.422Z,1.00
2023-08-30T18:35:13.487Z,1.00
2023-08-30T18:38:16.981Z,0.00
2023-08-30T18:41:20.790Z,0.00
2023-08-30T18:44:24.490Z,0.00
2023-08-30T18:47:28.106Z,1.00
2023-08-30T18:50:33.360Z,0.67
2023-08-30T18:53:36.878Z,0.00
2023-08-30T18:56:40.499Z,0.33
2023-08-30T18:59:47.220Z,1.00
2023-08-30T19:02:51.034Z,1.00
2023-08-30T19:05:56.080Z,0.00
2023-08-30T19:08:59.558Z,0.00
2023-08-30T19:12:03.814Z,0.00
2023-08-30T19:15:09.573Z,1.00
2023-08-30T19:18:13.083Z,0.33
2023-08-30T19:21:21.069Z,1.00
2023-08-30T19:24:25.492Z,0.00
2023-08-30T19:27:29.130Z,1.00
2023-08-30T19:30:32.711Z,1.00
2023-08-30T19:33:36.855Z,0.00
2023-08-30T19:36:41.832Z,1.00
2023-08-30T19:39:45.661Z,0.00
2023-08-30T19:42:50.535Z,1.00
2023-08-30T19:46:12.076Z,0.67
2023-08-30T19:49:15.610Z,0.33
2023-08-30T19:52:20.576Z,0.33
2023-08-30T19:55:25.569Z,2.33
2023-08-30T19:58:29.184Z,0.00
2023-08-30T20:01:34.248Z,0.33
2023-08-30T20:04:37.920Z,2.00
2023-08-30T20:07:44.087Z,0.00
2023-08-30T20:10:49.900Z,0.67
2023-08-30T20:13:53.423Z,1.67
2023-08-30T20:16:56.963Z,1.00
2023-08-30T20:20:01.839Z,1.00
2023-08-30T20:23:09.973Z,2.33
2023-08-30T20:26:14.444Z,0.00
2023-08-30T20:29:18.047Z,1.00
2023-08-30T20:32:22.911Z,3.00
2023-08-30T20:35:26.941Z,1.00
2023-08-30T20:38:33.317Z,1.00
2023-08-30T20:41:36.949Z,1.00
2023-08-30T20:44:40.484Z,0.33
2023-08-30T20:47:45.772Z,3.00
2023-08-30T20:50:49.656Z,3.00
2023-08-30T20:54:02.343Z,3.00
2023-08-30T20:57:06.754Z,1.00
2023-08-30T21:00:13.408Z,1.00
2023-08-30T21:03:22.306Z,0.00
2023-08-30T21:06:28.646Z,1.00
2023-08-30T21:09:34.557Z,4.00
2023-08-30T21:12:38.958Z,0.67
2023-08-30T21:15:44.278Z,1.00
2023-08-30T21:18:47.800Z,3.00
2023-08-30T21:21:51.357Z,1.00
2023-08-30T21:24:56.481Z,1.00
2023-08-30T21:27:59.964Z,2.33
2023-08-30T21:31:03.872Z,0.00
2023-08-30T21:34:11.161Z,1.00
2023-08-30T21:37:15.082Z,3.00
2023-08-30T21:40:20.304Z,1.00
2023-08-30T21:43:26.728Z,3.00
2023-08-30T21:46:30.619Z,2.33
2023-08-30T21:49:34.561Z,1.00
2023-08-30T21:52:38.074Z,0.67
2023-08-30T21:55:43.093Z,3.67
2023-08-30T21:58:46.710Z,1.00
2023-08-30T22:01:50.431Z,1.67
2023-08-30T22:04:54.286Z,1.00
2023-08-30T22:07:57.806Z,3.00
2023-08-30T22:11:04.019Z,1.00
2023-08-30T22:14:10.674Z,1.00
2023-08-30T22:17:14.461Z,3.00
2023-08-30T22:20:19.712Z,3.00
2023-08-30T22:23:23.590Z,3.00
2023-08-30T22:26:49.600Z,1.00
2023-08-30T22:30:00.207Z,3.00
2023-08-30T22:33:04.888Z,3.00
2023-08-30T22:36:10.603Z,1.67
2023-08-30T22:39:17.868Z,4.00
2023-08-30T22:42:25.989Z,3.33
2023-08-30T22:45:30.912Z,3.00
2023-08-30T22:48:36.212Z,4.67
2023-08-30T22:51:52.147Z,3.00
2023-08-30T22:54:58.754Z,4.00
2023-08-30T22:58:04.686Z,3.00
2023-08-30T23:01:10.006Z,3.33
2023-08-30T23:04:14.354Z,4.67
2023-08-30T23:07:18.976Z,4.00
2023-08-30T23:10:25.680Z,6.00
2023-08-30T23:13:31.394Z,3.00
2023-08-30T23:16:35.997Z,2.33
2023-08-30T23:19:39.866Z,3.00
2023-08-30T23:22:45.440Z,3.33
2023-08-30T23:25:50.490Z,3.00
2023-08-30T23:28:56.927Z,1.00
2023-08-30T23:32:00.910Z,6.00
2023-08-30T23:35:06.274Z,4.33
2023-08-30T23:38:11.045Z,3.33
2023-08-30T23:41:15.509Z,0.00
2023-08-30T23:44:20.845Z,3.00
2023-08-30T23:47:25.274Z,3.67
2023-08-30T23:50:29.621Z,3.67
2023-08-30T23:53:33.483Z,3.00
2023-08-30T23:56:39.122Z,3.67
2023-08-30T23:59:44.497Z,3.33
